createdAt,value
2022-08-31T22:48:02.026Z,41.84
2022-08-31T22:48:33.651Z,41.69
2022-08-31T22:49:07.880Z,41.54
2022-08-31T22:49:39.263Z,41.66
2022-08-31T22:50:10.866Z,41.54
2022-08-31T22:50:42.290Z,41.84
2022-08-31T22:51:13.919Z,41.64
2022-08-31T22:51:45.358Z,41.83
2022-08-31T22:52:17.517Z,41.45
2022-08-31T22:52:49.100Z,41.53
2022-08-31T22:53:20.551Z,41.48
2022-08-31T22:53:52.358Z,41.83
2022-08-31T22:54:24.040Z,41.73
2022-08-31T22:54:55.491Z,41.89
2022-08-31T22:55:27.299Z,41.53
2022-08-31T22:55:58.850Z,41.51
2022-08-31T22:56:30.301Z,41.41
2022-08-31T22:57:01.881Z,41.31
2022-08-31T22:57:33.832Z,40.84
2022-08-31T22:58:05.331Z,40.67
2022-08-31T22:58:36.905Z,40.24
2022-08-31T22:59:08.574Z,40.14
2022-08-31T22:59:40.030Z,40.12
2022-08-31T23:00:11.820Z,40.50
2022-08-31T23:00:43.937Z,40.12
2022-08-31T23:01:15.975Z,40.23
2022-08-31T23:01:47.525Z,40.32
2022-08-31T23:02:19.191Z,39.91
2022-08-31T23:02:50.778Z,40.33
2022-08-31T23:03:22.234Z,40.23
2022-08-31T23:03:53.819Z,40.04
2022-08-31T23:04:25.610Z,40.34
2022-08-31T23:04:57.027Z,39.98
2022-08-31T23:05:28.858Z,40.11
2022-08-31T23:06:00.835Z,40.14
2022-08-31T23:06:32.557Z,40.00
2022-08-31T23:07:04.044Z,40.30
2022-08-31T23:07:35.469Z,40.23
2022-08-31T23:08:07.051Z,40.20
2022-08-31T23:08:38.538Z,40.20
2022-08-31T23:09:10.306Z,40.12
2022-08-31T23:09:41.809Z,40.50
2022-08-31T23:10:13.199Z,40.19
2022-08-31T23:10:44.653Z,40.40
2022-08-31T23:11:16.180Z,40.40
2022-08-31T23:11:47.948Z,40.13
2022-08-31T23:12:19.859Z,40.14
2022-08-31T23:12:51.444Z,40.23
2022-08-31T23:13:23.618Z,40.37
2022-08-31T23:13:55.199Z,40.30
2022-08-31T23:14:27.022Z,40.42
2022-08-31T23:14:58.533Z,40.42
2022-08-31T23:15:30.337Z,40.38
2022-08-31T23:16:02.020Z,40.07
2022-08-31T23:16:33.551Z,40.12
2022-08-31T23:17:04.965Z,40.29
2022-08-31T23:17:36.530Z,40.21
2022-08-31T23:18:07.955Z,40.02
2022-08-31T23:18:39.456Z,40.38
2022-08-31T23:19:10.926Z,40.11
2022-08-31T23:19:42.441Z,40.26
2022-08-31T23:20:14.007Z,40.12
2022-08-31T23:20:45.585Z,39.89
2022-08-31T23:21:17.114Z,40.19
2022-08-31T23:21:53.026Z,40.26
2022-08-31T23:22:29.142Z,40.19
2022-08-31T23:23:00.689Z,40.24
2022-08-31T23:23:32.300Z,40.04
2022-08-31T23:24:03.741Z,40.17
2022-08-31T23:24:35.260Z,40.04
2022-08-31T23:25:06.739Z,40.06
2022-08-31T23:25:38.209Z,39.91
2022-08-31T23:26:09.724Z,40.10
2022-08-31T23:26:41.371Z,39.94
2022-08-31T23:27:12.826Z,40.06
2022-08-31T23:27:44.352Z,39.95
2022-08-31T23:28:15.862Z,40.11
2022-08-31T23:28:47.551Z,40.19
2022-08-31T23:29:19.330Z,40.15
2022-08-31T23:29:50.755Z,40.19
2022-08-31T23:30:22.210Z,39.81
2022-08-31T23:30:54.666Z,40.16
2022-08-31T23:31:26.189Z,40.17
2022-08-31T23:31:57.893Z,40.23
2022-08-31T23:32:29.677Z,40.16
2022-08-31T23:33:01.417Z,40.12
2022-08-31T23:33:33.169Z,40.10
2022-08-31T23:34:04.747Z,39.99
2022-08-31T23:34:36.345Z,40.03
2022-08-31T23:35:07.891Z,39.73
2022-08-31T23:35:39.451Z,39.98
2022-08-31T23:36:10.983Z,40.10
2022-08-31T23:36:42.453Z,39.86
2022-08-31T23:37:14.020Z,40.01
2022-08-31T23:37:45.840Z,40.08
2022-08-31T23:38:17.820Z,39.78
2022-08-31T23:38:49.744Z,39.90
2022-08-31T23:39:21.507Z,39.78
2022-08-31T23:39:53.153Z,39.85
2022-08-31T23:40:24.784Z,39.99
2022-08-31T23:40:56.229Z,39.92
2022-08-31T23:41:28.046Z,40.04
2022-08-31T23:41:59.485Z,39.69
2022-08-31T23:42:31.427Z,39.87
2022-08-31T23:43:03.219Z,40.07
2022-08-31T23:43:35.019Z,39.78
2022-08-31T23:44:06.553Z,39.98
2022-08-31T23:44:37.999Z,40.08
2022-08-31T23:45:09.446Z,39.87
2022-08-31T23:45:41.045Z,39.81
2022-08-31T23:46:12.844Z,39.70
2022-08-31T23:46:44.599Z,39.70
2022-08-31T23:47:16.337Z,40.00
2022-08-31T23:47:48.144Z,40.00
2022-08-31T23:48:19.860Z,39.82
2022-08-31T23:48:51.663Z,39.81
2022-08-31T23:49:23.703Z,39.78
2022-08-31T23:49:55.082Z,39.95
2022-08-31T23:50:26.632Z,39.66
2022-08-31T23:50:58.119Z,39.70
2022-08-31T23:51:29.823Z,39.80
2022-08-31T23:52:01.803Z,39.92
2022-08-31T23:52:33.526Z,39.85
2022-08-31T23:53:05.064Z,39.99
2022-08-31T23:53:36.661Z,39.98
2022-08-31T23:54:08.231Z,39.96
2022-08-31T23:54:39.715Z,39.73
2022-08-31T23:55:11.463Z,39.84
2022-08-31T23:55:43.041Z,39.77
2022-08-31T23:56:14.879Z,39.79
2022-08-31T23:56:46.760Z,39.96
2022-08-31T23:57:31.564Z,39.99
2022-08-31T23:58:04.801Z,39.95
2022-08-31T23:58:36.611Z,39.86
2022-08-31T23:59:08.213Z,39.96
2022-08-31T23:59:39.999Z,39.75
